sensor_id;sensor_type;location;lat;lon;timestamp;temperature;humidity
37842;DHT22;23682;53.508;10.476;2022-09-21T00:01:29;8.10;99.90
37842;DHT22;23682;53.508;10.476;2022-09-21T00:04:02;8.10;99.90
37842;DHT22;23682;53.508;10.476;2022-09-21T00:06:31;8.10;99.90
37842;DHT22;23682;53.508;10.476;2022-09-21T00:08:59;8.10;99.90
37842;DHT22;23682;53.508;10.476;2022-09-21T00:11:30;8.10;99.90
37842;DHT22;23682;53.508;10.476;2022-09-21T00:14:04;8.10;99.90
37842;DHT22;23682;53.508;10.476;2022-09-21T00:16:33;8.10;99.90
37842;DHT22;23682;53.508;10.476;2022-09-21T00:19:01;8.10;99.90
37842;DHT22;23682;53.508;10.476;2022-09-21T00:21:28;8.10;99.90
37842;DHT22;23682;53.508;10.476;2022-09-21T00:23:57;8.00;99.90
37842;DHT22;23682;53.508;10.476;2022-09-21T00:26:26;8.00;99.90
37842;DHT22;23682;53.508;10.476;2022-09-21T00:28:58;8.00;99.90
37842;DHT22;23682;53.508;10.476;2022-09-21T00:31:26;7.90;99.90
37842;DHT22;23682;53.508;10.476;2022-09-21T00:33:59;7.90;99.90
37842;DHT22;23682;53.508;10.476;2022-09-21T00:36:27;7.90;99.90
37842;DHT22;23682;53.508;10.476;2022-09-21T00:38:56;7.90;99.90
37842;DHT22;23682;53.508;10.476;2022-09-21T00:41:24;7.80;99.90
37842;DHT22;23682;53.508;10.476;2022-09-21T00:46:45;7.80;99.90
37842;DHT22;23682;53.508;10.476;2022-09-21T00:49:16;7.80;99.90
37842;DHT22;23682;53.508;10.476;2022-09-21T00:51:44;7.80;99.90
37842;DHT22;23682;53.508;10.476;2022-09-21T00:54:22;7.80;99.90
37842;DHT22;23682;53.508;10.476;2022-09-21T00:56:54;7.80;99.90
37842;DHT22;23682;53.508;10.476;2022-09-21T00:59:24;7.70;99.90
37842;DHT22;23682;53.508;10.476;2022-09-21T01:01:57;7.80;99.90
37842;DHT22;23682;53.508;10.476;2022-09-21T01:04:26;7.70;99.90
37842;DHT22;23682;53.508;10.476;2022-09-21T01:06:55;7.60;99.90
37842;DHT22;23682;53.508;10.476;2022-09-21T01:09:24;7.60;99.90
37842;DHT22;23682;53.508;10.476;2022-09-21T01:14:54;7.50;99.90
37842;DHT22;23682;53.508;10.476;2022-09-21T01:26:27;7.50;99.90
37842;DHT22;23682;53.508;10.476;2022-09-21T01:31:41;7.50;99.90
37842;DHT22;23682;53.508;10.476;2022-09-21T01:34:22;7.50;99.90
37842;DHT22;23682;53.508;10.476;2022-09-21T01:36:52;7.50;99.90
37842;DHT22;23682;53.508;10.476;2022-09-21T01:39:21;7.50;99.90
37842;DHT22;23682;53.508;10.476;2022-09-21T01:41:50;7.50;99.90
37842;DHT22;23682;53.508;10.476;2022-09-21T01:44:21;7.50;99.90
37842;DHT22;23682;53.508;10.476;2022-09-21T01:46:50;7.40;99.90
37842;DHT22;23682;53.508;10.476;2022-09-21T01:49:31;7.40;99.90
37842;DHT22;23682;53.508;10.476;2022-09-21T01:52:06;7.40;99.90
37842;DHT22;23682;53.508;10.476;2022-09-21T01:54:46;7.40;99.90
37842;DHT22;23682;53.508;10.476;2022-09-21T01:57:27;7.40;99.90
37842;DHT22;23682;53.508;10.476;2022-09-21T01:59:59;7.50;99.90
37842;DHT22;23682;53.508;10.476;2022-09-21T02:02:42;7.50;99.90
37842;DHT22;23682;53.508;10.476;2022-09-21T02:05:12;7.50;99.90
37842;DHT22;23682;53.508;10.476;2022-09-21T02:07:40;7.40;99.90
37842;DHT22;23682;53.508;10.476;2022-09-21T02:10:14;7.40;99.90
37842;DHT22;23682;53.508;10.476;2022-09-21T02:12:42;7.40;99.90
37842;DHT22;23682;53.508;10.476;2022-09-21T02:15:09;7.30;99.90
37842;DHT22;23682;53.508;10.476;2022-09-21T02:18:02;7.30;99.90
37842;DHT22;23682;53.508;10.476;2022-09-21T02:20:37;7.30;99.90
37842;DHT22;23682;53.508;10.476;2022-09-21T02:23:34;7.30;99.90
37842;DHT22;23682;53.508;10.476;2022-09-21T02:26:23;7.30;99.90
37842;DHT22;23682;53.508;10.476;2022-09-21T02:32:11;7.30;99.90
37842;DHT22;23682;53.508;10.476;2022-09-21T02:34:48;7.30;99.90
37842;DHT22;23682;53.508;10.476;2022-09-21T02:40:29;7.10;99.90
37842;DHT22;23682;53.508;10.476;2022-09-21T02:43:26;7.10;99.90
37842;DHT22;23682;53.508;10.476;2022-09-21T02:46:00;7.10;99.90
37842;DHT22;23682;53.508;10.476;2022-09-21T02:48:55;7.20;99.90
37842;DHT22;23682;53.508;10.476;2022-09-21T02:51:32;7.20;99.90
37842;DHT22;23682;53.508;10.476;2022-09-21T02:54:03;7.20;99.90
37842;DHT22;23682;53.508;10.476;2022-09-21T02:56:32;7.20;99.90
37842;DHT22;23682;53.508;10.476;2022-09-21T02:59:03;7.20;99.90
37842;DHT22;23682;53.508;10.476;2022-09-21T03:01:32;7.10;99.90
37842;DHT22;23682;53.508;10.476;2022-09-21T03:04:00;7.20;99.90
37842;DHT22;23682;53.508;10.476;2022-09-21T03:09:45;7.20;99.90
37842;DHT22;23682;53.508;10.476;2022-09-21T03:12:12;7.20;99.90
37842;DHT22;23682;53.508;10.476;2022-09-21T03:14:39;7.10;99.90
37842;DHT22;23682;53.508;10.476;2022-09-21T03:17:07;7.20;99.90
37842;DHT22;23682;53.508;10.476;2022-09-21T03:19:34;7.10;99.90
37842;DHT22;23682;53.508;10.476;2022-09-21T03:22:04;7.10;99.90
37842;DHT22;23682;53.508;10.476;2022-09-21T03:24:33;7.10;99.90
37842;DHT22;23682;53.508;10.476;2022-09-21T03:27:13;7.10;99.90
37842;DHT22;23682;53.508;10.476;2022-09-21T03:29:41;7.00;99.90
37842;DHT22;23682;53.508;10.476;2022-09-21T03:32:08;7.00;99.90
37842;DHT22;23682;53.508;10.476;2022-09-21T03:34:35;7.00;99.90
37842;DHT22;23682;53.508;10.476;2022-09-21T03:37:03;7.10;99.90
37842;DHT22;23682;53.508;10.476;2022-09-21T03:39:33;7.10;99.90
37842;DHT22;23682;53.508;10.476;2022-09-21T03:42:00;7.10;99.90
37842;DHT22;23682;53.508;10.476;2022-09-21T03:44:28;7.10;99.90
37842;DHT22;23682;53.508;10.476;2022-09-21T03:46:55;7.00;99.90
37842;DHT22;23682;53.508;10.476;2022-09-21T03:49:28;7.00;99.90
37842;DHT22;23682;53.508;10.476;2022-09-21T03:51:56;6.90;99.90
37842;DHT22;23682;53.508;10.476;2022-09-21T03:54:28;6.90;99.90
37842;DHT22;23682;53.508;10.476;2022-09-21T03:56:55;7.00;99.90
37842;DHT22;23682;53.508;10.476;2022-09-21T03:59:24;6.90;99.90
37842;DHT22;23682;53.508;10.476;2022-09-21T04:01:51;6.90;99.90
37842;DHT22;23682;53.508;10.476;2022-09-21T04:04:20;7.00;99.90
37842;DHT22;23682;53.508;10.476;2022-09-21T04:06:47;6.90;99.90
37842;DHT22;23682;53.508;10.476;2022-09-21T04:09:14;6.90;99.90
37842;DHT22;23682;53.508;10.476;2022-09-21T04:11:40;6.90;99.90
37842;DHT22;23682;53.508;10.476;2022-09-21T04:14:11;7.00;99.90
37842;DHT22;23682;53.508;10.476;2022-09-21T04:16:38;6.90;99.90
37842;DHT22;23682;53.508;10.476;2022-09-21T04:19:05;6.90;99.90
37842;DHT22;23682;53.508;10.476;2022-09-21T04:21:32;6.90;99.90
37842;DHT22;23682;53.508;10.476;2022-09-21T04:24:03;6.90;99.90
37842;DHT22;23682;53.508;10.476;2022-09-21T04:26:32;6.90;99.90
37842;DHT22;23682;53.508;10.476;2022-09-21T04:28:59;6.90;99.90
37842;DHT22;23682;53.508;10.476;2022-09-21T04:31:27;6.90;99.90
37842;DHT22;23682;53.508;10.476;2022-09-21T04:33:56;6.90;99.90
37842;DHT22;23682;53.508;10.476;2022-09-21T04:36:24;6.90;99.90
37842;DHT22;23682;53.508;10.476;2022-09-21T04:38:51;6.90;99.90
37842;DHT22;23682;53.508;10.476;2022-09-21T04:41:18;6.90;99.90
37842;DHT22;23682;53.508;10.476;2022-09-21T04:43:47;6.80;99.90
37842;DHT22;23682;53.508;10.476;2022-09-21T04:46:18;6.80;99.90
37842;DHT22;23682;53.508;10.476;2022-09-21T04:48:47;6.80;99.90
37842;DHT22;23682;53.508;10.476;2022-09-21T04:51:15;6.80;99.90
37842;DHT22;23682;53.508;10.476;2022-09-21T04:53:43;6.80;99.90
37842;DHT22;23682;53.508;10.476;2022-09-21T04:56:13;6.80;99.90
37842;DHT22;23682;53.508;10.476;2022-09-21T04:58:41;6.80;99.90
37842;DHT22;23682;53.508;10.476;2022-09-21T05:01:08;6.80;99.90
37842;DHT22;23682;53.508;10.476;2022-09-21T05:03:36;6.70;99.90
37842;DHT22;23682;53.508;10.476;2022-09-21T05:06:05;6.70;99.90
37842;DHT22;23682;53.508;10.476;2022-09-21T05:08:32;6.70;99.90
37842;DHT22;23682;53.508;10.476;2022-09-21T05:11:18;6.70;99.90
37842;DHT22;23682;53.508;10.476;2022-09-21T05:13:45;6.70;99.90
37842;DHT22;23682;53.508;10.476;2022-09-21T05:16:15;6.70;99.90
37842;DHT22;23682;53.508;10.476;2022-09-21T05:18:43;6.70;99.90
37842;DHT22;23682;53.508;10.476;2022-09-21T05:21:16;6.70;99.90
37842;DHT22;23682;53.508;10.476;2022-09-21T05:23:43;6.70;99.90
37842;DHT22;23682;53.508;10.476;2022-09-21T05:26:09;6.70;99.90
37842;DHT22;23682;53.508;10.476;2022-09-21T05:28:36;6.80;99.90
37842;DHT22;23682;53.508;10.476;2022-09-21T05:31:35;6.90;99.90
37842;DHT22;23682;53.508;10.476;2022-09-21T05:39:26;7.30;99.90
37842;DHT22;23682;53.508;10.476;2022-09-21T05:41:54;7.50;99.90
37842;DHT22;23682;53.508;10.476;2022-09-21T05:44:21;7.60;99.90
37842;DHT22;23682;53.508;10.476;2022-09-21T05:50:13;7.90;99.90
37842;DHT22;23682;53.508;10.476;2022-09-21T05:52:35;8.20;99.90
37842;DHT22;23682;53.508;10.476;2022-09-21T06:00:45;9.00;99.90
37842;DHT22;23682;53.508;10.476;2022-09-21T06:03:31;9.10;99.90
37842;DHT22;23682;53.508;10.476;2022-09-21T06:05:58;9.30;99.90
37842;DHT22;23682;53.508;10.476;2022-09-21T06:08:25;9.40;99.90
37842;DHT22;23682;53.508;10.476;2022-09-21T06:10:53;9.30;99.90
37842;DHT22;23682;53.508;10.476;2022-09-21T06:13:20;9.40;99.90
37842;DHT22;23682;53.508;10.476;2022-09-21T06:15:47;9.60;99.90
37842;DHT22;23682;53.508;10.476;2022-09-21T06:18:13;9.70;99.90
37842;DHT22;23682;53.508;10.476;2022-09-21T06:20:44;9.80;99.90
37842;DHT22;23682;53.508;10.476;2022-09-21T06:23:14;9.90;99.90
37842;DHT22;23682;53.508;10.476;2022-09-21T06:25:43;9.90;99.90
37842;DHT22;23682;53.508;10.476;2022-09-21T06:28:11;10.00;99.90
37842;DHT22;23682;53.508;10.476;2022-09-21T06:30:39;10.10;99.90
37842;DHT22;23682;53.508;10.476;2022-09-21T06:33:08;10.10;99.90
37842;DHT22;23682;53.508;10.476;2022-09-21T06:35:36;10.20;99.90
37842;DHT22;23682;53.508;10.476;2022-09-21T06:38:04;10.20;99.90
37842;DHT22;23682;53.508;10.476;2022-09-21T06:40:36;10.30;99.90
37842;DHT22;23682;53.508;10.476;2022-09-21T06:43:04;10.30;99.90
37842;DHT22;23682;53.508;10.476;2022-09-21T06:45:34;10.30;99.90
37842;DHT22;23682;53.508;10.476;2022-09-21T06:48:01;10.40;99.90
37842;DHT22;23682;53.508;10.476;2022-09-21T06:50:28;10.40;99.90
37842;DHT22;23682;53.508;10.476;2022-09-21T06:52:57;10.40;99.90
37842;DHT22;23682;53.508;10.476;2022-09-21T06:55:25;10.50;99.90
37842;DHT22;23682;53.508;10.476;2022-09-21T06:58:03;10.50;99.90
37842;DHT22;23682;53.508;10.476;2022-09-21T07:00:31;10.60;99.90
37842;DHT22;23682;53.508;10.476;2022-09-21T07:02:58;10.60;99.90
37842;DHT22;23682;53.508;10.476;2022-09-21T07:05:25;10.70;99.90
37842;DHT22;23682;53.508;10.476;2022-09-21T07:07:56;10.70;99.90
37842;DHT22;23682;53.508;10.476;2022-09-21T07:10:24;10.80;99.90
37842;DHT22;23682;53.508;10.476;2022-09-21T07:12:52;10.90;99.90
37842;DHT22;23682;53.508;10.476;2022-09-21T07:15:19;10.90;99.90
37842;DHT22;23682;53.508;10.476;2022-09-21T07:17:47;11.00;99.90
37842;DHT22;23682;53.508;10.476;2022-09-21T07:20:18;11.10;99.90
37842;DHT22;23682;53.508;10.476;2022-09-21T07:22:48;11.20;99.90
37842;DHT22;23682;53.508;10.476;2022-09-21T07:25:15;11.30;99.90
37842;DHT22;23682;53.508;10.476;2022-09-21T07:27:42;11.30;99.90
37842;DHT22;23682;53.508;10.476;2022-09-21T07:30:12;11.40;99.90
37842;DHT22;23682;53.508;10.476;2022-09-21T07:32:39;11.50;99.90
37842;DHT22;23682;53.508;10.476;2022-09-21T07:35:06;11.60;99.90
37842;DHT22;23682;53.508;10.476;2022-09-21T07:37:33;11.70;99.90
37842;DHT22;23682;53.508;10.476;2022-09-21T07:40:00;11.80;99.90
37842;DHT22;23682;53.508;10.476;2022-09-21T07:42:31;12.00;99.90
37842;DHT22;23682;53.508;10.476;2022-09-21T07:44:58;12.00;99.90
37842;DHT22;23682;53.508;10.476;2022-09-21T07:47:32;12.20;99.90
37842;DHT22;23682;53.508;10.476;2022-09-21T07:49:58;12.30;99.90
37842;DHT22;23682;53.508;10.476;2022-09-21T07:52:26;12.40;99.90
37842;DHT22;23682;53.508;10.476;2022-09-21T07:54:53;12.40;99.90
37842;DHT22;23682;53.508;10.476;2022-09-21T07:57:20;12.50;99.90
37842;DHT22;23682;53.508;10.476;2022-09-21T08:00:08;12.60;99.90
37842;DHT22;23682;53.508;10.476;2022-09-21T08:02:38;12.70;99.90
37842;DHT22;23682;53.508;10.476;2022-09-21T08:05:12;12.70;99.90
37842;DHT22;23682;53.508;10.476;2022-09-21T08:07:39;12.70;99.90
37842;DHT22;23682;53.508;10.476;2022-09-21T08:10:09;12.80;99.90
37842;DHT22;23682;53.508;10.476;2022-09-21T08:12:36;12.80;99.90
37842;DHT22;23682;53.508;10.476;2022-09-21T08:15:06;12.90;99.90
37842;DHT22;23682;53.508;10.476;2022-09-21T08:17:50;12.80;99.90
37842;DHT22;23682;53.508;10.476;2022-09-21T08:20:17;12.90;99.90
37842;DHT22;23682;53.508;10.476;2022-09-21T08:22:44;12.90;99.90
37842;DHT22;23682;53.508;10.476;2022-09-21T08:25:11;13.00;99.90
37842;DHT22;23682;53.508;10.476;2022-09-21T08:27:38;13.00;99.90
37842;DHT22;23682;53.508;10.476;2022-09-21T08:30:07;13.10;99.90
37842;DHT22;23682;53.508;10.476;2022-09-21T08:32:36;13.10;99.90
37842;DHT22;23682;53.508;10.476;2022-09-21T08:35:17;13.10;99.90
37842;DHT22;23682;53.508;10.476;2022-09-21T08:37:47;13.10;99.90
37842;DHT22;23682;53.508;10.476;2022-09-21T08:40:19;13.20;99.90
37842;DHT22;23682;53.508;10.476;2022-09-21T08:43:06;13.20;99.90
37842;DHT22;23682;53.508;10.476;2022-09-21T08:45:40;13.30;99.90
37842;DHT22;23682;53.508;10.476;2022-09-21T08:48:22;13.30;99.90
37842;DHT22;23682;53.508;10.476;2022-09-21T08:51:01;13.30;99.90
37842;DHT22;23682;53.508;10.476;2022-09-21T08:53:42;13.30;99.90
37842;DHT22;23682;53.508;10.476;2022-09-21T08:56:11;13.40;99.90
37842;DHT22;23682;53.508;10.476;2022-09-21T08:58:41;13.40;99.90
37842;DHT22;23682;53.508;10.476;2022-09-21T09:04:17;13.50;99.90
37842;DHT22;23682;53.508;10.476;2022-09-21T09:20:18;13.70;99.90
37842;DHT22;23682;53.508;10.476;2022-09-21T09:22:52;13.70;99.90
37842;DHT22;23682;53.508;10.476;2022-09-21T09:25:24;13.80;99.90
37842;DHT22;23682;53.508;10.476;2022-09-21T09:27:53;13.90;99.90
37842;DHT22;23682;53.508;10.476;2022-09-21T09:30:24;13.90;99.90
37842;DHT22;23682;53.508;10.476;2022-09-21T09:33:04;14.00;99.90
37842;DHT22;23682;53.508;10.476;2022-09-21T09:35:37;14.10;99.90
37842;DHT22;23682;53.508;10.476;2022-09-21T09:51:57;14.40;99.90
37842;DHT22;23682;53.508;10.476;2022-09-21T09:54:26;14.50;99.90
37842;DHT22;23682;53.508;10.476;2022-09-21T09:56:53;14.50;99.90
37842;DHT22;23682;53.508;10.476;2022-09-21T10:02:03;14.60;99.90
37842;DHT22;23682;53.508;10.476;2022-09-21T10:04:31;14.50;99.90
37842;DHT22;23682;53.508;10.476;2022-09-21T10:07:00;14.50;99.90
37842;DHT22;23682;53.508;10.476;2022-09-21T10:09:33;14.30;99.90
37842;DHT22;23682;53.508;10.476;2022-09-21T10:12:24;14.20;99.90
37842;DHT22;23682;53.508;10.476;2022-09-21T10:14:53;14.30;99.90
37842;DHT22;23682;53.508;10.476;2022-09-21T10:17:23;14.30;99.90
37842;DHT22;23682;53.508;10.476;2022-09-21T10:20:04;14.50;99.90
37842;DHT22;23682;53.508;10.476;2022-09-21T10:22:33;14.60;99.90
37842;DHT22;23682;53.508;10.476;2022-09-21T10:25:03;14.70;99.90
37842;DHT22;23682;53.508;10.476;2022-09-21T10:27:36;14.90;99.90
37842;DHT22;23682;53.508;10.476;2022-09-21T10:32:56;15.10;99.90
37842;DHT22;23682;53.508;10.476;2022-09-21T10:35:27;15.10;99.90
37842;DHT22;23682;53.508;10.476;2022-09-21T10:38:14;15.10;99.90
37842;DHT22;23682;53.508;10.476;2022-09-21T10:40:49;14.90;99.90
37842;DHT22;23682;53.508;10.476;2022-09-21T10:43:25;14.70;99.90
37842;DHT22;23682;53.508;10.476;2022-09-21T10:45:59;14.60;99.90
37842;DHT22;23682;53.508;10.476;2022-09-21T10:48:27;14.50;99.90
37842;DHT22;23682;53.508;10.476;2022-09-21T10:50:55;14.40;99.90
37842;DHT22;23682;53.508;10.476;2022-09-21T10:59:21;14.40;99.90
37842;DHT22;23682;53.508;10.476;2022-09-21T11:01:54;14.50;99.90
37842;DHT22;23682;53.508;10.476;2022-09-21T11:04:44;14.60;99.90
37842;DHT22;23682;53.508;10.476;2022-09-21T11:15:50;14.80;99.90
37842;DHT22;23682;53.508;10.476;2022-09-21T11:18:44;14.90;98.20
37842;DHT22;23682;53.508;10.476;2022-09-21T11:21:26;14.90;98.10
37842;DHT22;23682;53.508;10.476;2022-09-21T11:27:32;15.00;98.70
37842;DHT22;23682;53.508;10.476;2022-09-21T11:30:13;14.90;99.80
37842;DHT22;23682;53.508;10.476;2022-09-21T11:37:52;15.10;99.90
37842;DHT22;23682;53.508;10.476;2022-09-21T11:43:31;15.20;99.90
37842;DHT22;23682;53.508;10.476;2022-09-21T11:48:50;15.30;99.90
37842;DHT22;23682;53.508;10.476;2022-09-21T11:56:54;15.10;99.90
37842;DHT22;23682;53.508;10.476;2022-09-21T12:13:21;15.40;97.70
37842;DHT22;23682;53.508;10.476;2022-09-21T12:18:59;15.40;96.50
37842;DHT22;23682;53.508;10.476;2022-09-21T12:21:33;15.50;97.00
37842;DHT22;23682;53.508;10.476;2022-09-21T12:24:19;15.50;96.90
37842;DHT22;23682;53.508;10.476;2022-09-21T12:26:56;15.60;97.10
37842;DHT22;23682;53.508;10.476;2022-09-21T12:29:38;15.60;97.60
37842;DHT22;23682;53.508;10.476;2022-09-21T12:32:27;15.60;97.60
37842;DHT22;23682;53.508;10.476;2022-09-21T12:35:01;15.60;97.50
37842;DHT22;23682;53.508;10.476;2022-09-21T12:37:37;15.60;97.50
37842;DHT22;23682;53.508;10.476;2022-09-21T12:42:49;15.70;98.10
37842;DHT22;23682;53.508;10.476;2022-09-21T12:45:43;15.70;98.00
37842;DHT22;23682;53.508;10.476;2022-09-21T12:50:55;15.70;97.50
37842;DHT22;23682;53.508;10.476;2022-09-21T12:53:32;15.80;97.50
37842;DHT22;23682;53.508;10.476;2022-09-21T12:59:24;15.90;97.60
37842;DHT22;23682;53.508;10.476;2022-09-21T13:04:50;15.80;97.10
37842;DHT22;23682;53.508;10.476;2022-09-21T13:09:56;15.80;98.30
37842;DHT22;23682;53.508;10.476;2022-09-21T13:12:36;15.70;98.40
37842;DHT22;23682;53.508;10.476;2022-09-21T13:15:16;15.60;99.10
37842;DHT22;23682;53.508;10.476;2022-09-21T13:17:44;15.40;98.90
37842;DHT22;23682;53.508;10.476;2022-09-21T13:20:17;15.30;98.90
37842;DHT22;23682;53.508;10.476;2022-09-21T13:22:46;15.30;99.50
37842;DHT22;23682;53.508;10.476;2022-09-21T13:25:18;15.30;99.30
37842;DHT22;23682;53.508;10.476;2022-09-21T13:30:41;15.40;98.20
37842;DHT22;23682;53.508;10.476;2022-09-21T13:54:36;15.80;98.50
37842;DHT22;23682;53.508;10.476;2022-09-21T14:00:30;15.90;97.70
37842;DHT22;23682;53.508;10.476;2022-09-21T14:03:00;15.80;96.10
37842;DHT22;23682;53.508;10.476;2022-09-21T14:05:43;15.80;97.00
37842;DHT22;23682;53.508;10.476;2022-09-21T14:13:30;15.80;96.00
37842;DHT22;23682;53.508;10.476;2022-09-21T14:16:24;15.80;96.10
37842;DHT22;23682;53.508;10.476;2022-09-21T14:18:52;15.80;96.70
37842;DHT22;23682;53.508;10.476;2022-09-21T14:21:22;15.80;97.00
37842;DHT22;23682;53.508;10.476;2022-09-21T14:27:01;15.80;96.20
37842;DHT22;23682;53.508;10.476;2022-09-21T14:35:46;15.90;96.20
37842;DHT22;23682;53.508;10.476;2022-09-21T14:38:43;15.90;96.50
37842;DHT22;23682;53.508;10.476;2022-09-21T14:41:26;15.80;95.90
37842;DHT22;23682;53.508;10.476;2022-09-21T14:43:56;15.80;96.00
37842;DHT22;23682;53.508;10.476;2022-09-21T14:50:04;15.80;96.30
37842;DHT22;23682;53.508;10.476;2022-09-21T14:59:02;15.70;96.10
37842;DHT22;23682;53.508;10.476;2022-09-21T15:06:44;15.60;97.20
37842;DHT22;23682;53.508;10.476;2022-09-21T15:13:15;15.50;96.40
37842;DHT22;23682;53.508;10.476;2022-09-21T15:18:45;15.50;98.50
37842;DHT22;23682;53.508;10.476;2022-09-21T15:21:31;15.50;98.90
37842;DHT22;23682;53.508;10.476;2022-09-21T15:24:12;15.50;97.50
37842;DHT22;23682;53.508;10.476;2022-09-21T15:26:43;15.40;98.50
37842;DHT22;23682;53.508;10.476;2022-09-21T15:29:26;15.40;97.90
37842;DHT22;23682;53.508;10.476;2022-09-21T15:31:54;15.40;98.70
37842;DHT22;23682;53.508;10.476;2022-09-21T15:34:24;15.30;98.10
37842;DHT22;23682;53.508;10.476;2022-09-21T15:36:53;15.30;98.20
37842;DHT22;23682;53.508;10.476;2022-09-21T15:39:31;15.30;99.50
37842;DHT22;23682;53.508;10.476;2022-09-21T15:42:14;15.30;99.20
37842;DHT22;23682;53.508;10.476;2022-09-21T15:44:46;15.20;98.50
37842;DHT22;23682;53.508;10.476;2022-09-21T15:47:21;15.20;99.10
37842;DHT22;23682;53.508;10.476;2022-09-21T15:49:52;15.10;99.40
37842;DHT22;23682;53.508;10.476;2022-09-21T15:52:24;15.10;98.80
37842;DHT22;23682;53.508;10.476;2022-09-21T15:54:58;15.10;98.70
37842;DHT22;23682;53.508;10.476;2022-09-21T15:59:56;14.90;99.90
37842;DHT22;23682;53.508;10.476;2022-09-21T16:02:30;14.80;99.90
37842;DHT22;23682;53.508;10.476;2022-09-21T16:04:59;14.70;99.90
37842;DHT22;23682;53.508;10.476;2022-09-21T16:07:35;14.70;99.90
37842;DHT22;23682;53.508;10.476;2022-09-21T16:10:36;14.60;99.90
37842;DHT22;23682;53.508;10.476;2022-09-21T16:13:09;14.50;99.90
37842;DHT22;23682;53.508;10.476;2022-09-21T16:16:20;14.40;99.90
37842;DHT22;23682;53.508;10.476;2022-09-21T16:18:52;14.40;99.90
37842;DHT22;23682;53.508;10.476;2022-09-21T16:21:33;14.40;99.90
37842;DHT22;23682;53.508;10.476;2022-09-21T16:24:19;14.30;99.90
37842;DHT22;23682;53.508;10.476;2022-09-21T16:27:00;14.20;99.90
37842;DHT22;23682;53.508;10.476;2022-09-21T16:29:37;14.10;99.90
37842;DHT22;23682;53.508;10.476;2022-09-21T16:34:52;14.00;99.90
37842;DHT22;23682;53.508;10.476;2022-09-21T16:37:33;13.90;99.90
37842;DHT22;23682;53.508;10.476;2022-09-21T16:40:02;13.90;99.90
37842;DHT22;23682;53.508;10.476;2022-09-21T16:42:32;13.90;99.90
37842;DHT22;23682;53.508;10.476;2022-09-21T16:45:03;13.80;99.90
37842;DHT22;23682;53.508;10.476;2022-09-21T16:47:37;13.80;99.90
37842;DHT22;23682;53.508;10.476;2022-09-21T16:50:10;13.60;99.90
37842;DHT22;23682;53.508;10.476;2022-09-21T16:52:38;13.50;99.90
37842;DHT22;23682;53.508;10.476;2022-09-21T16:55:08;13.50;99.90
37842;DHT22;23682;53.508;10.476;2022-09-21T16:57:35;13.50;99.90
37842;DHT22;23682;53.508;10.476;2022-09-21T17:00:09;13.50;99.90
37842;DHT22;23682;53.508;10.476;2022-09-21T17:02:39;13.50;99.90
37842;DHT22;23682;53.508;10.476;2022-09-21T17:05:08;13.40;99.90
37842;DHT22;23682;53.508;10.476;2022-09-21T17:07:35;13.40;99.90
37842;DHT22;23682;53.508;10.476;2022-09-21T17:10:12;13.30;99.90
37842;DHT22;23682;53.508;10.476;2022-09-21T17:12:44;13.30;99.90
37842;DHT22;23682;53.508;10.476;2022-09-21T17:15:12;13.30;99.90
37842;DHT22;23682;53.508;10.476;2022-09-21T17:17:38;13.20;99.90
37842;DHT22;23682;53.508;10.476;2022-09-21T17:20:29;13.10;99.90
37842;DHT22;23682;53.508;10.476;2022-09-21T17:22:56;12.90;99.90
37842;DHT22;23682;53.508;10.476;2022-09-21T17:25:24;12.90;99.90
37842;DHT22;23682;53.508;10.476;2022-09-21T17:27:51;12.90;99.90
37842;DHT22;23682;53.508;10.476;2022-09-21T17:30:20;12.90;99.90
37842;DHT22;23682;53.508;10.476;2022-09-21T17:32:47;12.90;99.90
37842;DHT22;23682;53.508;10.476;2022-09-21T17:37:52;12.80;99.90
37842;DHT22;23682;53.508;10.476;2022-09-21T17:40:20;12.60;99.90
37842;DHT22;23682;53.508;10.476;2022-09-21T17:42:53;12.60;99.90
37842;DHT22;23682;53.508;10.476;2022-09-21T17:45:33;12.60;99.90
37842;DHT22;23682;53.508;10.476;2022-09-21T17:48:06;12.50;99.90
37842;DHT22;23682;53.508;10.476;2022-09-21T17:50:39;12.50;99.90
37842;DHT22;23682;53.508;10.476;2022-09-21T17:53:08;12.40;99.90
37842;DHT22;23682;53.508;10.476;2022-09-21T17:55:57;12.40;99.90
37842;DHT22;23682;53.508;10.476;2022-09-21T18:01:35;12.30;99.90
37842;DHT22;23682;53.508;10.476;2022-09-21T18:04:05;12.30;99.90
37842;DHT22;23682;53.508;10.476;2022-09-21T18:06:33;12.20;99.90
37842;DHT22;23682;53.508;10.476;2022-09-21T18:09:01;12.20;99.90
37842;DHT22;23682;53.508;10.476;2022-09-21T18:12:15;12.10;99.90
37842;DHT22;23682;53.508;10.476;2022-09-21T18:25:45;11.90;99.90
37842;DHT22;23682;53.508;10.476;2022-09-21T18:28:21;11.90;99.90
37842;DHT22;23682;53.508;10.476;2022-09-21T18:41:45;11.60;99.90
37842;DHT22;23682;53.508;10.476;2022-09-21T18:47:26;11.60;99.90
37842;DHT22;23682;53.508;10.476;2022-09-21T18:53:00;11.70;99.90
37842;DHT22;23682;53.508;10.476;2022-09-21T18:55:39;11.70;99.90
37842;DHT22;23682;53.508;10.476;2022-09-21T18:58:08;11.70;99.90
37842;DHT22;23682;53.508;10.476;2022-09-21T19:00:36;11.80;99.90
37842;DHT22;23682;53.508;10.476;2022-09-21T19:03:06;11.80;99.90
37842;DHT22;23682;53.508;10.476;2022-09-21T19:15:27;11.90;99.90
37842;DHT22;23682;53.508;10.476;2022-09-21T19:21:33;11.90;99.90
37842;DHT22;23682;53.508;10.476;2022-09-21T19:30:04;11.80;99.90
37842;DHT22;23682;53.508;10.476;2022-09-21T19:32:46;11.80;99.90
37842;DHT22;23682;53.508;10.476;2022-09-21T19:35:22;11.80;99.90
37842;DHT22;23682;53.508;10.476;2022-09-21T19:37:52;11.80;99.90
37842;DHT22;23682;53.508;10.476;2022-09-21T19:40:37;11.70;99.90
37842;DHT22;23682;53.508;10.476;2022-09-21T19:46:31;11.70;99.90
37842;DHT22;23682;53.508;10.476;2022-09-21T19:49:19;11.60;99.90
37842;DHT22;23682;53.508;10.476;2022-09-21T19:51:51;11.60;99.90
37842;DHT22;23682;53.508;10.476;2022-09-21T19:54:21;11.60;99.90
37842;DHT22;23682;53.508;10.476;2022-09-21T19:57:23;11.70;99.90
37842;DHT22;23682;53.508;10.476;2022-09-21T20:00:14;11.60;99.90
37842;DHT22;23682;53.508;10.476;2022-09-21T20:05:21;11.60;99.90
37842;DHT22;23682;53.508;10.476;2022-09-21T20:08:01;11.70;99.90
37842;DHT22;23682;53.508;10.476;2022-09-21T20:20:51;11.60;99.90
37842;DHT22;23682;53.508;10.476;2022-09-21T20:23:18;11.50;99.90
37842;DHT22;23682;53.508;10.476;2022-09-21T20:25:53;11.50;99.90
37842;DHT22;23682;53.508;10.476;2022-09-21T20:28:21;11.50;99.90
37842;DHT22;23682;53.508;10.476;2022-09-21T20:30:48;11.40;99.90
37842;DHT22;23682;53.508;10.476;2022-09-21T20:33:17;11.40;99.90
37842;DHT22;23682;53.508;10.476;2022-09-21T20:35:49;11.30;99.90
37842;DHT22;23682;53.508;10.476;2022-09-21T20:38:16;11.20;99.90